Time;durP1;ratioP1;P1;durP2;ratioP2;P2;SDS_P1;SDS_P2;PMS_P1;PMS_P2;Temp;Humidity;BMP_temperature;BMP_pressure;BME280_temperature;BME280_humidity;BME280_pressure;Samples;Min_cycle;Max_cycle;Signal;HPM_P1;HPM_P2
2021/08/06 00:00:37;;;;;;;2.20;1.95;;;20.10;70.90;;;;;;5045934;28;20108;-81
2021/08/06 00:03:03;;;;;;;2.42;2.20;;;20.10;70.80;;;;;;5048767;28;20032;-80
2021/08/06 00:05:29;;;;;;;2.95;2.60;;;20.10;70.80;;;;;;5050976;28;20044;-82
2021/08/06 00:07:54;;;;;;;3.95;3.10;;;20.10;71.10;;;;;;5051444;28;20041;-81
2021/08/06 00:10:20;;;;;;;3.28;2.72;;;20.00;71.40;;;;;;5047699;28;20135;-80
2021/08/06 00:12:45;;;;;;;3.60;2.53;;;20.00;71.60;;;;;;5055960;28;20024;-81
2021/08/06 00:15:11;;;;;;;2.53;2.33;;;20.10;71.50;;;;;;5045710;28;20017;-80
2021/08/06 00:17:36;;;;;;;2.72;2.25;;;20.10;71.40;;;;;;5043757;28;20553;-80
2021/08/06 00:20:05;;;;;;;2.97;2.35;;;20.10;71.50;;;;;;5049423;28;20029;-80
2021/08/06 00:22:30;;;;;;;4.00;2.63;;;20.10;71.70;;;;;;5051616;28;20037;-81
2021/08/06 00:24:56;;;;;;;3.55;2.70;;;20.00;71.70;;;;;;5050972;28;20052;-80
2021/08/06 00:27:22;;;;;;;3.15;2.80;;;20.00;71.80;;;;;;5049324;28;20021;-81
2021/08/06 00:29:47;;;;;;;2.10;1.90;;;20.00;71.90;;;;;;5049232;28;20036;-80
2021/08/06 00:32:13;;;;;;;3.00;2.40;;;20.00;71.80;;;;;;5049644;28;20082;-80
2021/08/06 00:34:38;;;;;;;1.90;1.75;;;20.00;72.00;;;;;;5049248;28;20127;-80
2021/08/06 00:37:04;;;;;;;3.65;2.65;;;20.00;72.10;;;;;;5048187;28;20120;-80
2021/08/06 00:39:29;;;;;;;4.47;3.10;;;19.90;72.30;;;;;;5043937;28;20029;-80
2021/08/06 00:41:55;;;;;;;4.32;2.55;;;19.80;72.90;;;;;;5051879;28;20157;-80
2021/08/06 00:44:20;;;;;;;2.55;2.13;;;19.80;72.80;;;;;;5046053;28;20021;-80
2021/08/06 00:46:46;;;;;;;1.73;1.63;;;19.90;72.70;;;;;;5047455;28;20047;-80
2021/08/06 00:49:12;;;;;;;2.35;2.15;;;19.90;72.60;;;;;;5043731;28;20372;-79
2021/08/06 00:51:37;;;;;;;2.30;2.10;;;19.90;72.60;;;;;;5046653;28;20195;-80
2021/08/06 00:54:03;;;;;;;2.47;1.90;;;19.90;72.70;;;;;;5050037;28;20021;-81
2021/08/06 00:56:28;;;;;;;3.28;2.22;;;20.00;72.60;;;;;;5045600;28;20029;-80
2021/08/06 00:58:54;;;;;;;2.95;2.58;;;20.00;72.60;;;;;;5051424;28;20029;-81
2021/08/06 01:01:20;;;;;;;2.65;2.20;;;19.80;73.10;;;;;;5047879;28;20033;-80
2021/08/06 01:04:12;;;;;;;3.67;2.35;;;19.90;73.10;;;;;;5050245;28;20025;-81
2021/08/06 01:06:53;;;;;;;1.83;1.67;;;19.90;73.20;;;;;;5049797;28;20025;-81
2021/08/06 01:09:44;;;;;;;2.40;2.20;;;19.90;73.20;;;;;;5046523;28;20037;-80
2021/08/06 01:12:12;;;;;;;3.30;2.40;;;19.80;73.20;;;;;;5047112;28;20017;-81
2021/08/06 01:14:41;;;;;;;2.08;1.88;;;19.80;73.40;;;;;;5050916;28;20025;-81
2021/08/06 01:17:08;;;;;;;2.55;2.10;;;19.80;73.60;;;;;;5045458;28;20078;-82
2021/08/06 01:20:05;;;;;;;2.33;2.13;;;19.80;74.00;;;;;;5041330;28;20025;-80
2021/08/06 01:22:46;;;;;;;3.10;2.10;;;19.70;74.00;;;;;;5031548;28;20041;-81
2021/08/06 01:25:15;;;;;;;2.75;2.30;;;19.70;74.30;;;;;;5038638;28;20032;-80
2021/08/06 01:27:47;;;;;;;2.20;2.00;;;19.70;74.60;;;;;;5046482;28;20028;-80
2021/08/06 01:30:13;;;;;;;1.60;1.50;;;19.70;74.60;;;;;;5040655;28;20025;-80
2021/08/06 01:32:39;;;;;;;2.30;1.85;;;19.70;74.40;;;;;;5047063;28;20031;-80
2021/08/06 01:35:07;;;;;;;1.70;1.40;;;19.70;74.30;;;;;;5050005;28;20032;-80
2021/08/06 01:37:33;;;;;;;1.85;1.55;;;19.80;74.10;;;;;;5045269;28;20029;-80
2021/08/06 01:40:00;;;;;;;2.25;1.70;;;19.80;74.00;;;;;;5046537;28;20083;-80
2021/08/06 01:42:58;;;;;;;2.38;1.92;;;19.80;73.90;;;;;;5047654;28;20037;-80
2021/08/06 01:45:31;;;;;;;3.10;1.67;;;19.80;73.80;;;;;;5041731;28;20152;-81
2021/08/06 01:47:59;;;;;;;1.98;1.75;;;19.80;73.70;;;;;;5043935;28;20091;-81
2021/08/06 01:50:28;;;;;;;1.83;1.70;;;19.80;73.70;;;;;;5047172;28;20025;-81
2021/08/06 01:53:02;;;;;;;1.92;1.70;;;19.90;73.70;;;;;;5045159;28;20064;-81
2021/08/06 01:55:38;;;;;;;1.80;1.70;;;19.90;73.80;;;;;;5050052;28;20029;-80
2021/08/06 01:58:03;;;;;;;2.03;1.63;;;19.90;73.90;;;;;;5041966;28;20104;-80
2021/08/06 02:00:30;;;;;;;2.60;1.90;;;19.90;73.80;;;;;;5042856;28;20100;-80
2021/08/06 02:02:56;;;;;;;2.60;2.10;;;19.90;73.90;;;;;;5039073;28;20082;-80
2021/08/06 02:05:23;;;;;;;2.15;1.95;;;19.80;74.10;;;;;;5047296;28;20028;-81
2021/08/06 02:07:48;;;;;;;2.08;1.65;;;19.80;74.10;;;;;;5047113;28;20033;-81
2021/08/06 02:10:14;;;;;;;1.80;1.60;;;19.90;74.00;;;;;;5048714;28;20075;-80
2021/08/06 02:12:40;;;;;;;2.55;1.40;;;19.90;74.00;;;;;;5042315;28;20138;-80
2021/08/06 02:15:08;;;;;;;1.83;1.58;;;19.90;73.70;;;;;;5044741;28;20025;-80
2021/08/06 02:17:35;;;;;;;1.90;1.70;;;20.00;73.70;;;;;;5045062;28;20025;-81
2021/08/06 02:20:04;;;;;;;1.45;1.35;;;20.00;73.50;;;;;;5052343;28;20021;-81
2021/08/06 02:22:31;;;;;;;1.48;1.17;;;20.00;73.50;;;;;;5052342;28;20032;-81
2021/08/06 02:24:57;;;;;;;3.35;1.60;;;20.10;73.30;;;;;;5044325;28;20045;-80
2021/08/06 02:27:25;;;;;;;1.25;1.00;;;20.10;73.20;;;;;;5043002;28;20033;-81
2021/08/06 02:29:55;;;;;;;1.77;1.60;;;20.10;73.10;;;;;;5051837;28;20021;-80
2021/08/06 02:32:21;;;;;;;1.95;1.70;;;20.00;73.30;;;;;;5046784;28;20048;-80
2021/08/06 02:34:49;;;;;;;1.70;1.45;;;19.90;73.50;;;;;;5049366;28;20072;-81
2021/08/06 02:37:14;;;;;;;2.00;1.40;;;20.00;73.60;;;;;;5039207;28;20560;-80
2021/08/06 02:39:40;;;;;;;1.83;1.30;;;19.90;73.70;;;;;;5050962;28;20105;-82
2021/08/06 02:42:05;;;;;;;2.00;1.73;;;19.90;73.80;;;;;;5047904;28;20123;-80
2021/08/06 02:44:37;;;;;;;2.45;1.30;;;19.90;73.90;;;;;;5052184;28;20391;-80
2021/08/06 02:47:07;;;;;;;1.90;1.40;;;19.90;73.90;;;;;;5051595;28;20029;-80
2021/08/06 02:49:33;;;;;;;1.20;1.10;;;19.90;73.90;;;;;;5050987;28;20036;-81
2021/08/06 02:52:04;;;;;;;1.77;1.50;;;19.90;73.90;;;;;;5052728;28;20048;-80
2021/08/06 02:54:30;;;;;;;1.98;1.52;;;19.80;74.60;;;;;;5049898;28;20087;-80
2021/08/06 02:56:56;;;;;;;1.60;1.50;;;19.80;74.20;;;;;;5050146;28;20045;-81
2021/08/06 02:59:21;;;;;;;3.05;1.48;;;19.80;74.30;;;;;;5053874;28;20480;-80
2021/08/06 03:01:47;;;;;;;1.88;1.60;;;19.80;74.30;;;;;;5053553;28;20095;-82
2021/08/06 03:04:13;;;;;;;2.95;1.85;;;19.80;74.40;;;;;;5047938;28;20084;-82
2021/08/06 03:06:38;;;;;;;2.42;1.92;;;19.70;74.80;;;;;;5048223;28;20495;-81
2021/08/06 03:09:04;;;;;;;2.88;2.50;;;19.70;75.00;;;;;;5051381;28;20040;-81
2021/08/06 03:11:29;;;;;;;2.67;1.80;;;19.60;75.50;;;;;;5046954;28;20047;-81
2021/08/06 03:13:55;;;;;;;2.58;2.00;;;19.50;75.50;;;;;;5052090;28;20037;-81
2021/08/06 03:16:20;;;;;;;3.13;2.03;;;19.50;75.90;;;;;;5045126;28;20017;-82
2021/08/06 03:18:46;;;;;;;3.88;1.90;;;19.50;75.90;;;;;;5049845;28;20033;-81
2021/08/06 03:21:11;;;;;;;2.30;2.00;;;19.50;75.90;;;;;;5053117;28;20036;-82
2021/08/06 03:23:37;;;;;;;2.20;1.73;;;19.50;76.00;;;;;;5059085;28;20102;-83
2021/08/06 03:26:03;;;;;;;2.45;1.70;;;19.50;75.70;;;;;;5048287;28;20024;-82
2021/08/06 03:28:28;;;;;;;1.95;1.75;;;19.50;75.50;;;;;;5046297;28;20032;-82
2021/08/06 03:30:54;;;;;;;3.28;1.98;;;19.50;75.40;;;;;;5050163;28;20071;-82
2021/08/06 03:33:19;;;;;;;1.77;1.67;;;19.60;75.30;;;;;;5046891;28;20036;-82
2021/08/06 03:35:45;;;;;;;2.47;1.90;;;19.60;75.10;;;;;;5050175;28;20017;-82
2021/08/06 03:38:19;;;;;;;1.80;1.60;;;19.50;75.10;;;;;;5052255;28;20037;-81
2021/08/06 03:40:44;;;;;;;1.63;1.52;;;19.60;75.10;;;;;;5051001;28;20472;-81
2021/08/06 03:43:11;;;;;;;1.45;1.20;;;19.60;75.00;;;;;;5049659;28;20036;-81
2021/08/06 03:45:36;;;;;;;1.55;1.45;;;19.70;74.90;;;;;;5049389;28;20032;-81
2021/08/06 03:48:03;;;;;;;3.10;2.38;;;19.70;74.80;;;;;;5051005;28;20537;-81
2021/08/06 03:50:28;;;;;;;2.67;2.05;;;19.70;75.00;;;;;;5050359;28;20094;-81
2021/08/06 03:52:54;;;;;;;2.20;1.92;;;19.50;75.30;;;;;;5050927;28;20519;-80
2021/08/06 03:55:19;;;;;;;2.05;1.70;;;19.60;75.50;;;;;;5048489;28;20498;-80
2021/08/06 03:57:54;;;;;;;2.97;1.70;;;19.60;75.50;;;;;;5051187;28;20033;-80
2021/08/06 04:00:22;;;;;;;2.20;1.85;;;19.50;75.50;;;;;;5049906;28;20029;-79
2021/08/06 04:02:47;;;;;;;3.25;1.90;;;19.60;75.40;;;;;;5047016;28;20487;-80
2021/08/06 04:05:13;;;;;;;2.25;2.00;;;19.50;75.50;;;;;;5051607;28;20113;-82
2021/08/06 04:07:43;;;;;;;2.08;1.90;;;19.50;75.70;;;;;;5049442;28;20025;-81
2021/08/06 04:10:11;;;;;;;1.83;1.63;;;19.40;76.00;;;;;;5045348;28;20078;-81
2021/08/06 04:12:36;;;;;;;2.92;1.50;;;19.40;76.10;;;;;;5050009;28;20021;-82
2021/08/06 04:15:02;;;;;;;2.08;1.88;;;19.40;76.20;;;;;;5044026;28;20384;-82
2021/08/06 04:17:28;;;;;;;2.20;1.90;;;19.30;76.50;;;;;;5040460;28;20052;-82
2021/08/06 04:19:53;;;;;;;2.13;1.60;;;19.20;77.20;;;;;;5043562;28;20037;-82
2021/08/06 04:22:19;;;;;;;2.38;1.60;;;19.20;77.30;;;;;;5048257;28;20418;-82
2021/08/06 04:24:44;;;;;;;2.33;1.65;;;19.10;77.50;;;;;;5047537;28;20040;-81
2021/08/06 04:27:10;;;;;;;1.80;1.50;;;19.10;77.80;;;;;;5050818;28;20037;-81
2021/08/06 04:29:36;;;;;;;3.13;1.80;;;19.10;77.90;;;;;;5046960;28;20026;-82
2021/08/06 04:32:02;;;;;;;2.20;1.48;;;19.00;78.30;;;;;;5047879;28;20022;-81
2021/08/06 04:34:28;;;;;;;0.98;0.90;;;19.00;78.60;;;;;;5044339;28;20027;-81
2021/08/06 04:36:54;;;;;;;1.50;1.40;;;19.10;78.40;;;;;;5047326;28;20029;-80
2021/08/06 04:39:20;;;;;;;1.73;1.20;;;19.10;78.40;;;;;;5046500;28;20056;-81
2021/08/06 04:41:48;;;;;;;1.33;1.23;;;19.00;78.40;;;;;;5048589;28;20025;-81
2021/08/06 04:44:14;;;;;;;1.40;1.30;;;19.00;79.20;;;;;;5041890;28;20026;-81
2021/08/06 04:46:40;;;;;;;1.50;1.40;;;19.00;78.50;;;;;;5047544;28;20021;-80
2021/08/06 04:49:05;;;;;;;2.17;1.40;;;19.10;78.60;;;;;;5047423;28;20033;-79
2021/08/06 04:51:31;;;;;;;2.20;1.50;;;19.00;78.70;;;;;;5044781;28;20021;-79
2021/08/06 04:53:56;;;;;;;1.02;0.93;;;19.00;78.90;;;;;;5043107;28;20028;-79
2021/08/06 04:56:22;;;;;;;1.20;1.10;;;19.00;78.80;;;;;;5050653;28;20024;-79
2021/08/06 04:58:48;;;;;;;1.90;1.50;;;19.10;78.80;;;;;;5048324;28;20028;-80
2021/08/06 05:01:13;;;;;;;1.70;1.20;;;19.10;78.80;;;;;;5039190;28;20037;-80
2021/08/06 05:03:39;;;;;;;1.45;1.35;;;19.10;78.70;;;;;;5048434;28;20040;-80
2021/08/06 05:06:04;;;;;;;1.33;1.20;;;19.10;78.60;;;;;;5044545;28;20025;-79
2021/08/06 05:08:30;;;;;;;1.38;1.27;;;19.20;78.50;;;;;;5045626;28;20044;-79
2021/08/06 05:10:55;;;;;;;1.50;1.30;;;19.20;78.40;;;;;;5044418;28;20041;-79
2021/08/06 05:13:21;;;;;;;1.65;1.42;;;19.20;78.50;;;;;;5050500;28;20024;-80
2021/08/06 05:15:46;;;;;;;2.78;1.60;;;19.30;78.50;;;;;;5044501;28;20017;-79
2021/08/06 05:18:12;;;;;;;1.90;1.50;;;19.30;78.80;;;;;;5047552;28;20391;-80
2021/08/06 05:20:38;;;;;;;1.85;1.35;;;19.20;79.20;;;;;;5049907;28;20040;-79
2021/08/06 05:23:04;;;;;;;1.42;1.30;;;19.20;79.30;;;;;;5043712;28;20392;-79
2021/08/06 05:25:30;;;;;;;2.13;1.38;;;19.20;79.30;;;;;;5048683;28;20032;-80
2021/08/06 05:27:56;;;;;;;0.95;0.90;;;19.20;79.50;;;;;;5046755;28;20041;-80
2021/08/06 05:30:22;;;;;;;1.13;1.00;;;19.30;79.30;;;;;;5047864;28;20032;-80
2021/08/06 05:32:51;;;;;;;1.85;1.60;;;19.40;79.00;;;;;;5047841;28;20104;-80
2021/08/06 05:35:17;;;;;;;1.88;1.50;;;19.30;79.00;;;;;;5047417;28;20103;-81
2021/08/06 05:37:43;;;;;;;1.60;1.30;;;19.20;79.40;;;;;;5047962;28;20021;-80
2021/08/06 05:40:09;;;;;;;2.25;1.70;;;19.30;79.50;;;;;;5046204;28;20029;-80
2021/08/06 05:42:35;;;;;;;1.60;1.40;;;19.20;79.90;;;;;;5044336;28;20033;-80
2021/08/06 05:45:01;;;;;;;2.13;1.50;;;19.20;80.00;;;;;;5045341;28;20048;-79
2021/08/06 05:47:26;;;;;;;1.40;1.30;;;19.20;79.80;;;;;;5048369;28;20024;-80
2021/08/06 05:49:52;;;;;;;2.95;1.75;;;19.30;79.70;;;;;;5043243;28;20484;-80
2021/08/06 05:52:18;;;;;;;2.20;1.75;;;19.20;79.90;;;;;;5040782;28;20030;-76
2021/08/06 05:54:44;;;;;;;1.83;1.50;;;19.30;80.00;;;;;;5046659;28;20029;-76
2021/08/06 05:57:09;;;;;;;1.63;1.40;;;19.30;79.90;;;;;;5043062;28;20048;-77
2021/08/06 05:59:35;;;;;;;2.63;1.33;;;19.20;79.90;;;;;;5049845;28;20037;-76
2021/08/06 06:02:00;;;;;;;1.50;1.40;;;19.30;79.80;;;;;;5043472;28;20505;-76
2021/08/06 06:04:26;;;;;;;1.58;1.30;;;19.20;79.90;;;;;;5047744;28;20017;-76
2021/08/06 06:06:52;;;;;;;3.30;2.05;;;19.30;79.80;;;;;;5047725;28;20116;-76
2021/08/06 06:09:17;;;;;;;1.58;1.40;;;19.30;79.90;;;;;;5044206;28;20029;-76
2021/08/06 06:11:43;;;;;;;1.40;1.30;;;19.20;80.10;;;;;;5050032;28;20025;-76
2021/08/06 06:14:08;;;;;;;1.80;1.70;;;19.30;80.20;;;;;;5048559;28;20037;-75
2021/08/06 06:16:34;;;;;;;1.60;1.38;;;19.20;80.30;;;;;;5050215;28;20028;-76
2021/08/06 06:18:59;;;;;;;1.77;1.63;;;19.20;80.70;;;;;;5041198;28;20028;-77
2021/08/06 06:21:25;;;;;;;2.00;1.30;;;19.10;81.10;;;;;;5048004;28;20043;-76
2021/08/06 06:23:50;;;;;;;2.00;1.80;;;19.20;81.00;;;;;;5047329;28;20136;-76
2021/08/06 06:26:16;;;;;;;1.92;1.73;;;19.20;81.00;;;;;;5047814;28;20382;-76
2021/08/06 06:28:41;;;;;;;2.05;1.88;;;19.10;81.20;;;;;;5049944;28;20037;-76
2021/08/06 06:31:07;;;;;;;3.25;2.08;;;19.10;81.30;;;;;;5049471;28;20037;-76
2021/08/06 06:33:33;;;;;;;2.03;1.83;;;19.10;81.70;;;;;;5048706;28;20033;-76
2021/08/06 06:35:58;;;;;;;2.33;1.63;;;19.00;82.00;;;;;;5049043;28;20032;-76
2021/08/06 06:38:24;;;;;;;1.98;1.35;;;19.00;82.20;;;;;;5049015;28;20029;-82
2021/08/06 06:40:50;;;;;;;3.38;1.73;;;19.00;82.00;;;;;;5043528;28;20032;-86
2021/08/06 06:43:15;;;;;;;1.25;1.10;;;19.00;82.10;;;;;;5047021;28;20183;-85
2021/08/06 06:45:41;;;;;;;1.20;1.10;;;19.00;82.30;;;;;;5047030;28;20459;-83
2021/08/06 06:48:08;;;;;;;1.20;1.10;;;19.10;82.10;;;;;;5046813;28;20403;-85
2021/08/06 06:50:35;;;;;;;1.20;1.10;;;19.10;81.90;;;;;;5044607;28;20025;-85
2021/08/06 06:53:00;;;;;;;1.23;1.10;;;19.10;81.90;;;;;;5046436;28;20033;-85
2021/08/06 06:55:26;;;;;;;1.80;1.70;;;19.10;81.70;;;;;;5047385;28;20108;-85
2021/08/06 06:57:56;;;;;;;1.40;1.30;;;19.10;81.80;;;;;;5045355;28;20052;-86
2021/08/06 07:00:24;;;;;;;2.67;1.98;;;19.20;82.00;;;;;;5046220;28;20117;-87
2021/08/06 07:02:50;;;;;;;1.58;1.40;;;19.20;82.40;;;;;;5049198;28;20083;-86
2021/08/06 07:05:16;;;;;;;1.95;1.50;;;19.20;82.30;;;;;;5053119;28;20411;-84
2021/08/06 07:07:42;;;;;;;1.60;1.50;;;19.30;82.40;;;;;;5048031;28;20373;-86
2021/08/06 07:10:09;;;;;;;2.33;1.50;;;19.30;82.30;;;;;;5053006;28;20024;-84
2021/08/06 07:12:37;;;;;;;1.77;1.63;;;19.40;82.50;;;;;;5056991;28;20029;-85
2021/08/06 07:15:04;;;;;;;1.70;1.60;;;19.50;82.20;;;;;;5049766;28;20021;-85
2021/08/06 07:17:33;;;;;;;1.85;1.70;;;19.60;81.90;;;;;;5050400;28;20036;-85
2021/08/06 07:19:59;;;;;;;1.70;1.60;;;19.70;81.60;;;;;;5050698;28;20057;-86
2021/08/06 07:22:25;;;;;;;2.15;1.73;;;20.00;81.20;;;;;;5053304;28;20048;-86
2021/08/06 07:24:51;;;;;;;1.50;1.40;;;20.10;80.80;;;;;;5052568;28;20183;-82
2021/08/06 07:27:16;;;;;;;1.60;1.50;;;20.10;80.60;;;;;;5053652;28;20576;-83
2021/08/06 07:29:42;;;;;;;2.63;2.42;;;20.10;80.50;;;;;;5050381;28;20373;-83
2021/08/06 07:32:07;;;;;;;3.08;2.10;;;20.10;80.50;;;;;;5049928;28;20360;-83
2021/08/06 07:34:33;;;;;;;2.45;2.25;;;20.10;80.70;;;;;;5046559;28;20025;-82
2021/08/06 07:36:59;;;;;;;2.65;2.45;;;20.10;80.60;;;;;;5057725;28;20097;-82
2021/08/06 07:39:24;;;;;;;2.40;2.20;;;20.10;80.60;;;;;;5052396;28;20025;-83
2021/08/06 07:41:50;;;;;;;3.78;2.58;;;20.10;80.70;;;;;;5041984;28;20078;-83
2021/08/06 07:44:15;;;;;;;4.72;3.90;;;20.00;80.70;;;;;;5051105;28;20029;-83
2021/08/06 07:46:41;;;;;;;3.08;2.78;;;19.90;80.60;;;;;;5051640;28;20573;-84
2021/08/06 07:49:06;;;;;;;3.08;2.63;;;19.80;80.80;;;;;;5050130;28;20558;-87
2021/08/06 07:51:32;;;;;;;3.63;3.10;;;19.80;80.90;;;;;;5052280;28;20379;-85
2021/08/06 07:54:02;;;;;;;3.30;3.00;;;19.90;80.90;;;;;;5049204;28;20029;-84
2021/08/06 07:56:28;;;;;;;2.13;1.95;;;19.90;80.70;;;;;;5048547;28;20037;-83
2021/08/06 07:58:53;;;;;;;3.42;2.75;;;20.00;80.50;;;;;;5047691;28;20032;-86
2021/08/06 08:01:19;;;;;;;2.65;2.45;;;20.00;80.30;;;;;;5050211;28;20033;-85
2021/08/06 08:03:45;;;;;;;3.90;3.50;;;20.10;80.30;;;;;;5046017;28;20025;-88
2021/08/06 08:06:12;;;;;;;3.30;2.75;;;20.10;80.10;;;;;;5049985;28;20040;-85
2021/08/06 08:08:38;;;;;;;2.60;2.40;;;20.10;80.20;;;;;;5051528;28;20036;-83
2021/08/06 08:11:03;;;;;;;5.60;3.78;;;20.30;79.90;;;;;;5051961;28;20040;-84
2021/08/06 08:13:29;;;;;;;4.10;3.70;;;20.30;79.60;;;;;;5051754;28;20065;-84
2021/08/06 08:15:54;;;;;;;4.00;3.50;;;20.20;79.40;;;;;;5048619;28;20025;-84
2021/08/06 08:18:20;;;;;;;3.20;2.90;;;20.10;79.60;;;;;;5050953;28;20036;-86
2021/08/06 08:20:47;;;;;;;5.25;4.20;;;20.20;79.50;;;;;;5052017;28;20021;-86
2021/08/06 08:23:14;;;;;;;4.80;4.35;;;20.30;79.20;;;;;;5050060;28;20028;-88
2021/08/06 08:25:40;;;;;;;6.25;4.50;;;20.30;79.80;;;;;;5050811;28;20044;-89
2021/08/06 08:28:07;;;;;;;3.78;3.35;;;20.30;79.10;;;;;;5049792;28;20032;-85
2021/08/06 08:30:33;;;;;;;3.63;3.33;;;20.30;79.00;;;;;;5050708;28;20483;-86
2021/08/06 08:32:58;;;;;;;4.43;3.28;;;20.30;78.90;;;;;;5045129;28;20098;-84
2021/08/06 08:35:24;;;;;;;3.05;2.72;;;20.30;78.70;;;;;;5042810;28;20045;-84
2021/08/06 08:37:53;;;;;;;3.65;3.15;;;20.40;78.60;;;;;;5047917;28;20043;-83
2021/08/06 08:40:18;;;;;;;5.00;4.45;;;20.40;78.40;;;;;;5047791;28;20025;-83
2021/08/06 08:42:44;;;;;;;5.70;4.03;;;20.40;78.30;;;;;;5052757;28;20042;-87
2021/08/06 08:45:11;;;;;;;3.88;3.47;;;20.30;77.70;;;;;;5049391;28;20021;-85
2021/08/06 08:47:37;;;;;;;4.18;3.25;;;20.40;77.60;;;;;;5047470;28;20040;-85
2021/08/06 08:50:05;;;;;;;5.43;3.60;;;20.50;77.40;;;;;;5045115;28;20025;-85
2021/08/06 08:52:31;;;;;;;3.47;2.65;;;20.70;76.80;;;;;;5046936;28;20040;-85
2021/08/06 08:54:57;;;;;;;3.55;2.78;;;20.90;76.50;;;;;;5046948;28;20040;-84
2021/08/06 08:57:24;;;;;;;3.80;2.90;;;21.10;76.20;;;;;;5046949;28;20025;-87
2021/08/06 08:59:52;;;;;;;4.57;3.38;;;21.30;75.60;;;;;;5048204;28;20033;-84
2021/08/06 09:02:18;;;;;;;2.70;2.42;;;21.40;74.60;;;;;;5048369;28;20116;-85
2021/08/06 09:04:46;;;;;;;4.53;3.10;;;21.50;74.30;;;;;;5047127;28;20112;-83
2021/08/06 09:07:30;;;;;;;3.38;2.50;;;21.50;73.50;;;;;;5045336;28;20024;-87
2021/08/06 09:10:11;;;;;;;4.07;3.25;;;21.50;73.70;;;;;;5042804;28;20038;-76
2021/08/06 09:12:47;;;;;;;3.03;2.73;;;21.40;73.40;;;;;;5044789;28;20064;-78
2021/08/06 09:15:13;;;;;;;3.15;2.60;;;21.40;73.50;;;;;;5046794;28;20078;-75
2021/08/06 09:17:39;;;;;;;3.83;3.08;;;21.40;73.40;;;;;;5047313;28;20422;-77
2021/08/06 09:20:09;;;;;;;3.67;2.65;;;21.40;73.50;;;;;;5047089;28;20118;-76
2021/08/06 09:22:39;;;;;;;3.30;2.42;;;21.60;73.40;;;;;;5047446;28;20511;-79
2021/08/06 09:25:08;;;;;;;3.05;2.15;;;21.90;73.00;;;;;;5046278;28;20029;-79
2021/08/06 09:27:36;;;;;;;2.90;1.85;;;22.10;72.50;;;;;;5047635;28;20394;-77
2021/08/06 09:30:06;;;;;;;4.97;2.45;;;22.10;72.40;;;;;;5045890;28;20025;-77
2021/08/06 09:32:51;;;;;;;2.90;2.10;;;22.00;71.30;;;;;;5046035;28;20028;-76
2021/08/06 09:35:20;;;;;;;4.28;3.13;;;22.00;70.90;;;;;;5045633;28;20032;-77
2021/08/06 09:37:46;;;;;;;3.50;2.20;;;22.10;69.10;;;;;;5045547;28;20448;-76
2021/08/06 09:40:19;;;;;;;2.25;1.92;;;22.00;68.90;;;;;;5044979;28;20082;-78
2021/08/06 09:42:58;;;;;;;2.88;2.30;;;21.90;69.20;;;;;;5046034;28;20025;-76
2021/08/06 09:45:26;;;;;;;2.88;2.20;;;21.80;69.30;;;;;;5041217;28;20037;-77
2021/08/06 09:47:56;;;;;;;3.03;2.15;;;21.80;69.30;;;;;;5042366;28;20032;-77
2021/08/06 09:50:32;;;;;;;3.10;2.60;;;21.70;69.50;;;;;;5039889;28;20052;-76
2021/08/06 09:52:58;;;;;;;3.70;2.20;;;21.60;69.70;;;;;;5043578;28;20035;-79
2021/08/06 09:55:31;;;;;;;2.80;1.83;;;21.50;70.10;;;;;;5042938;28;20599;-75
2021/08/06 09:57:58;;;;;;;2.95;1.95;;;21.60;70.10;;;;;;5043103;28;20546;-77
2021/08/06 10:00:26;;;;;;;3.20;2.13;;;21.60;69.60;;;;;;5044499;28;20033;-76
2021/08/06 10:02:53;;;;;;;4.53;2.20;;;21.80;68.70;;;;;;5043632;28;20488;-76
2021/08/06 10:05:21;;;;;;;2.88;2.08;;;22.00;68.60;;;;;;5045523;28;20451;-75
2021/08/06 10:07:56;;;;;;;3.13;2.15;;;22.10;68.10;;;;;;5048679;28;20488;-77
2021/08/06 10:10:29;;;;;;;2.53;1.80;;;22.00;67.30;;;;;;5044875;28;20021;-77
2021/08/06 10:12:55;;;;;;;3.28;2.15;;;21.90;67.50;;;;;;5045318;28;20029;-77
2021/08/06 10:15:23;;;;;;;3.45;2.10;;;21.80;66.90;;;;;;5038114;28;20039;-76
2021/08/06 10:17:50;;;;;;;1.77;1.48;;;21.80;67.30;;;;;;5045413;28;20032;-77
2021/08/06 10:20:18;;;;;;;3.08;1.60;;;21.70;67.40;;;;;;5047517;28;20514;-77
2021/08/06 10:22:44;;;;;;;3.80;1.90;;;21.60;67.80;;;;;;5045972;28;20082;-77
2021/08/06 10:25:11;;;;;;;1.73;1.63;;;21.40;68.90;;;;;;5047452;28;20427;-78
2021/08/06 10:27:41;;;;;;;1.98;1.50;;;21.30;69.90;;;;;;5049400;28;20325;-77
2021/08/06 10:30:10;;;;;;;1.60;1.50;;;21.20;70.60;;;;;;5043729;28;20075;-77
2021/08/06 10:32:38;;;;;;;3.45;1.67;;;21.20;70.90;;;;;;5041980;28;20022;-77
2021/08/06 10:35:18;;;;;;;3.78;2.10;;;21.30;71.40;;;;;;5044048;28;20074;-77
2021/08/06 10:37:56;;;;;;;1.85;1.40;;;21.40;71.60;;;;;;5046821;28;20033;-76
2021/08/06 10:40:34;;;;;;;2.22;1.73;;;21.50;71.80;;;;;;5049361;28;20049;-76
2021/08/06 10:43:20;;;;;;;3.53;2.13;;;21.60;72.00;;;;;;5049179;28;20557;-76
2021/08/06 10:45:45;;;;;;;3.65;1.80;;;21.50;70.90;;;;;;5048271;28;20037;-77
2021/08/06 10:48:30;;;;;;;1.83;1.30;;;21.50;70.60;;;;;;5050850;28;20598;-76
2021/08/06 10:51:14;;;;;;;1.63;1.40;;;21.60;70.70;;;;;;5040872;28;20036;-77
2021/08/06 10:53:43;;;;;;;2.33;1.30;;;21.80;70.60;;;;;;5045898;28;20027;-76
2021/08/06 10:56:17;;;;;;;2.10;1.35;;;22.10;70.10;;;;;;5049236;28;20020;-76
2021/08/06 10:58:52;;;;;;;2.42;1.67;;;22.30;69.40;;;;;;5050324;28;20049;-77
2021/08/06 11:01:26;;;;;;;2.10;1.30;;;22.40;68.80;;;;;;5047102;28;20028;-77
2021/08/06 11:04:06;;;;;;;4.07;1.65;;;22.40;68.30;;;;;;5047483;28;20029;-77
2021/08/06 11:06:48;;;;;;;2.88;1.63;;;22.40;67.00;;;;;;5037900;28;20048;-76
2021/08/06 11:09:26;;;;;;;;;;;22.20;66.40;;;;;;5049093;28;20029;-77
2021/08/06 11:11:59;;;;;;;2.17;1.40;;;22.30;66.80;;;;;;5044493;28;19909;-77
2021/08/06 11:14:28;;;;;;;5.45;2.25;;;22.40;66.60;;;;;;5045505;28;20287;-75
2021/08/06 11:17:12;;;;;;;2.90;1.60;;;22.50;65.40;;;;;;5043122;28;20059;-77
2021/08/06 11:19:43;;;;;;;2.50;1.40;;;22.50;65.70;;;;;;5042679;28;20407;-78
2021/08/06 11:22:20;;;;;;;2.05;1.20;;;22.60;65.50;;;;;;5048090;28;20041;-76
2021/08/06 11:24:52;;;;;;;1.20;0.90;;;22.80;65.60;;;;;;5039628;28;20033;-79
2021/08/06 11:27:19;;;;;;;1.83;1.10;;;23.00;65.60;;;;;;5047216;28;20651;-76
2021/08/06 11:29:58;;;;;;;2.22;1.38;;;23.10;65.30;;;;;;5043885;28;20609;-77
2021/08/06 11:32:24;;;;;;;2.13;1.13;;;23.20;63.60;;;;;;5041958;28;20017;-77
2021/08/06 11:35:02;;;;;;;1.75;1.20;;;23.20;63.50;;;;;;5050737;28;20436;-75
2021/08/06 11:37:56;;;;;;;1.77;1.40;;;23.20;62.90;;;;;;5048164;28;20028;-77
2021/08/06 11:40:26;;;;;;;2.15;1.00;;;23.30;62.20;;;;;;5047177;28;20017;-77
2021/08/06 11:42:52;;;;;;;1.00;0.90;;;23.40;62.70;;;;;;5045270;28;20029;-77
2021/08/06 11:45:28;;;;;;;1.90;1.40;;;23.40;62.90;;;;;;5048365;28;20025;-77
2021/08/06 11:48:04;;;;;;;1.55;1.30;;;23.50;61.80;;;;;;5047378;28;20064;-78
2021/08/06 11:50:54;;;;;;;1.17;0.98;;;23.40;61.90;;;;;;5048849;28;20111;-78
2021/08/06 11:53:23;;;;;;;1.48;1.23;;;23.40;62.30;;;;;;5046769;28;20112;-85
2021/08/06 11:55:51;;;;;;;2.03;0.93;;;23.20;62.00;;;;;;5045838;28;20029;-81
2021/08/06 11:58:34;;;;;;;1.60;0.95;;;23.20;62.40;;;;;;5044797;28;20029;-77
2021/08/06 12:01:00;;;;;;;1.52;1.10;;;23.20;62.30;;;;;;5041868;28;20063;-76
2021/08/06 12:03:26;;;;;;;1.25;1.00;;;23.30;62.30;;;;;;5051101;28;20442;-78
2021/08/06 12:06:00;;;;;;;2.00;1.20;;;23.50;62.20;;;;;;5050388;28;20041;-78
2021/08/06 12:08:32;;;;;;;1.08;0.95;;;23.50;61.30;;;;;;5036040;28;20029;-76
2021/08/06 12:11:11;;;;;;;2.13;1.15;;;23.70;61.60;;;;;;5043393;28;20021;-77
2021/08/06 12:13:49;;;;;;;1.50;0.90;;;23.70;61.40;;;;;;5039888;28;20025;-78
2021/08/06 12:16:27;;;;;;;1.27;1.10;;;23.70;61.40;;;;;;5055120;28;20236;-78
2021/08/06 12:19:02;;;;;;;2.13;0.90;;;23.50;60.30;;;;;;5039763;28;20032;-77
2021/08/06 12:21:32;;;;;;;1.48;1.02;;;23.30;60.90;;;;;;5048507;28;20075;-76
2021/08/06 12:24:08;;;;;;;0.80;0.80;;;23.20;61.50;;;;;;5049536;28;20454;-75
2021/08/06 12:26:34;;;;;;;1.65;1.10;;;23.10;61.60;;;;;;5044309;28;20025;-76
2021/08/06 12:29:15;;;;;;;1.83;1.00;;;23.00;60.80;;;;;;5043484;28;20545;-78
2021/08/06 12:32:05;;;;;;;3.67;1.63;;;22.90;61.30;;;;;;5040767;28;20345;-76
2021/08/06 12:34:32;;;;;;;1.73;1.30;;;22.70;61.30;;;;;;5046919;28;20259;-75
2021/08/06 12:37:00;;;;;;;2.42;1.10;;;22.60;62.40;;;;;;5047104;28;20033;-76
2021/08/06 12:39:28;;;;;;;1.27;0.82;;;22.50;63.20;;;;;;5044075;28;20120;-76
2021/08/06 12:41:55;;;;;;;0.80;0.77;;;22.50;63.60;;;;;;5044885;28;20028;-76
2021/08/06 12:44:25;;;;;;;1.00;0.80;;;22.70;63.90;;;;;;5045537;28;20029;-76
2021/08/06 12:47:15;;;;;;;1.10;0.80;;;22.90;62.80;;;;;;5045186;28;20056;-75
2021/08/06 12:50:00;;;;;;;0.63;0.63;;;23.00;62.40;;;;;;5045141;28;20028;-78
2021/08/06 12:52:43;;;;;;;0.73;0.70;;;23.20;62.50;;;;;;5044656;28;20029;-78
2021/08/06 12:55:16;;;;;;;0.85;0.68;;;23.50;62.20;;;;;;5043601;28;20033;-81